Time;durP1;ratioP1;P1;durP2;ratioP2;P2;SDS_P1;SDS_P2;PMS_P1;PMS_P2;Temp;Humidity;BMP_temperature;BMP_pressure;BME280_temperature;BME280_humidity;BME280_pressure;Samples;Min_cycle;Max_cycle;Signal;HPM_P1;HPM_P2
2022/04/24 00:01:32;;;;;;;3.25;2.95;;;13.10;99.90;;;;;;5094059;28;20240;-44
2022/04/24 00:03:58;;;;;;;3.30;3.00;;;13.10;99.90;;;;;;5094192;28;20226;-44
2022/04/24 00:06:24;;;;;;;3.67;3.03;;;13.10;99.90;;;;;;5094092;28;20581;-44
2022/04/24 00:08:50;;;;;;;2.75;2.47;;;13.10;99.90;;;;;;5094339;28;20536;-45
2022/04/24 00:11:16;;;;;;;3.85;2.67;;;13.10;99.90;;;;;;5094078;28;20173;-47
2022/04/24 00:13:42;;;;;;;4.00;3.20;;;13.10;99.90;;;;;;5094146;28;20262;-48
2022/04/24 00:16:11;;;;;;;3.97;2.75;;;13.10;99.90;;;;;;5094022;28;20170;-45
2022/04/24 00:18:38;;;;;;;3.15;2.70;;;13.10;99.90;;;;;;5094173;28;20173;-45
2022/04/24 00:21:05;;;;;;;4.07;3.10;;;13.00;99.90;;;;;;5093800;28;20157;-45
2022/04/24 00:23:31;;;;;;;3.25;2.65;;;13.00;99.90;;;;;;5094002;28;20169;-46
2022/04/24 00:25:57;;;;;;;3.22;2.88;;;13.00;99.90;;;;;;5093751;28;20168;-45
2022/04/24 00:28:23;;;;;;;4.03;3.08;;;13.00;99.90;;;;;;5093896;28;20170;-48
2022/04/24 00:30:48;;;;;;;4.13;2.92;;;12.90;99.90;;;;;;5093599;28;20166;-45
2022/04/24 00:33:14;;;;;;;3.17;2.88;;;12.90;99.90;;;;;;5093395;28;20213;-47
2022/04/24 00:35:40;;;;;;;3.22;2.92;;;12.90;99.90;;;;;;5093725;28;20162;-46
2022/04/24 00:38:05;;;;;;;4.45;2.72;;;13.00;99.90;;;;;;5093431;28;20169;-46
2022/04/24 00:40:31;;;;;;;3.97;3.58;;;13.00;99.90;;;;;;5093387;28;20626;-46
2022/04/24 00:42:57;;;;;;;3.65;2.75;;;12.90;99.90;;;;;;5093425;28;20161;-45
2022/04/24 00:45:22;;;;;;;6.68;3.15;;;12.90;99.90;;;;;;5093739;28;20176;-47
2022/04/24 00:47:48;;;;;;;4.28;3.30;;;12.90;99.90;;;;;;5093556;28;20199;-46
2022/04/24 00:50:14;;;;;;;3.42;3.13;;;12.90;99.90;;;;;;5093257;28;20534;-50
2022/04/24 00:52:39;;;;;;;6.32;3.45;;;12.90;99.90;;;;;;5093064;28;20661;-47
2022/04/24 00:55:06;;;;;;;3.58;3.13;;;12.80;99.90;;;;;;5093164;28;20230;-48
2022/04/24 00:57:32;;;;;;;3.20;2.90;;;12.80;99.90;;;;;;5093371;28;20592;-46
2022/04/24 00:59:58;;;;;;;7.95;2.88;;;12.80;99.90;;;;;;5093122;28;20210;-45
2022/04/24 01:02:24;;;;;;;3.50;3.00;;;12.70;99.90;;;;;;5093140;28;20246;-45
2022/04/24 01:04:50;;;;;;;5.82;3.22;;;12.70;99.90;;;;;;5093567;28;20260;-47
2022/04/24 01:07:15;;;;;;;4.07;3.08;;;12.70;99.90;;;;;;5092990;28;20298;-50
2022/04/24 01:09:41;;;;;;;3.45;3.13;;;12.70;99.90;;;;;;5092907;28;20615;-48
2022/04/24 01:12:07;;;;;;;3.45;3.00;;;12.70;99.90;;;;;;5092767;28;20669;-44
2022/04/24 01:14:34;;;;;;;4.75;3.00;;;12.60;99.90;;;;;;5092784;28;20630;-46
2022/04/24 01:17:01;;;;;;;3.67;3.08;;;12.60;99.90;;;;;;5092930;28;20555;-44
2022/04/24 01:19:27;;;;;;;4.05;3.33;;;12.60;99.90;;;;;;5092675;28;20289;-44
2022/04/24 01:21:54;;;;;;;5.22;3.40;;;12.60;99.90;;;;;;5093070;28;20522;-45
2022/04/24 01:24:26;;;;;;;3.10;2.80;;;12.60;99.90;;;;;;5092990;28;20223;-46
2022/04/24 01:26:51;;;;;;;3.45;3.15;;;12.50;99.90;;;;;;5092886;28;20196;-45
2022/04/24 01:29:18;;;;;;;5.00;3.17;;;12.50;99.90;;;;;;5092598;28;20256;-47
2022/04/24 01:31:45;;;;;;;4.22;3.42;;;12.50;99.90;;;;;;5092399;28;20586;-44
2022/04/24 01:34:12;;;;;;;4.88;3.33;;;12.50;99.90;;;;;;5092747;28;20252;-44
2022/04/24 01:36:37;;;;;;;4.28;3.42;;;12.40;99.90;;;;;;5092741;28;20216;-44
2022/04/24 01:39:06;;;;;;;6.63;3.42;;;12.40;99.90;;;;;;5091957;28;20201;-45
2022/04/24 01:41:32;;;;;;;5.13;3.80;;;12.40;99.90;;;;;;5092431;28;20169;-47
2022/04/24 01:43:58;;;;;;;4.20;3.80;;;12.40;99.90;;;;;;5092401;28;20173;-44
2022/04/24 01:46:24;;;;;;;4.15;3.15;;;12.40;99.90;;;;;;5092920;28;20572;-44
2022/04/24 01:48:50;;;;;;;5.00;3.45;;;12.40;99.90;;;;;;5092245;28;20165;-44
2022/04/24 01:51:16;;;;;;;4.78;3.40;;;12.30;99.90;;;;;;5092442;28;20165;-44
2022/04/24 01:53:43;;;;;;;3.92;3.53;;;12.30;99.90;;;;;;5092460;28;20204;-45
2022/04/24 01:56:09;;;;;;;4.10;3.70;;;12.30;99.90;;;;;;5092264;28;20214;-45
2022/04/24 01:58:35;;;;;;;4.28;3.63;;;12.30;99.90;;;;;;5092212;28;20214;-44
2022/04/24 02:01:01;;;;;;;4.38;3.38;;;12.30;99.90;;;;;;5091997;28;20659;-44
2022/04/24 02:03:28;;;;;;;3.70;3.40;;;12.20;99.90;;;;;;5092134;28;20178;-48
2022/04/24 02:05:54;;;;;;;4.65;4.00;;;12.20;99.90;;;;;;5092346;28;20611;-46
2022/04/24 02:08:20;;;;;;;4.22;3.83;;;12.20;99.90;;;;;;5092322;28;20177;-44
2022/04/24 02:10:46;;;;;;;4.28;3.88;;;12.10;99.90;;;;;;5092050;28;20170;-44
2022/04/24 02:13:12;;;;;;;4.18;3.78;;;12.10;99.90;;;;;;5092032;28;20744;-45
2022/04/24 02:15:37;;;;;;;6.47;3.95;;;12.00;99.90;;;;;;5092343;28;20172;-45
2022/04/24 02:18:03;;;;;;;6.20;3.53;;;12.00;99.90;;;;;;5092080;28;20179;-44
2022/04/24 02:20:29;;;;;;;4.28;3.88;;;11.90;99.90;;;;;;5092026;28;20241;-44
2022/04/24 02:22:57;;;;;;;6.13;3.55;;;11.90;99.90;;;;;;5092332;28;20197;-44
2022/04/24 02:25:24;;;;;;;4.15;3.63;;;11.80;99.90;;;;;;5092475;28;20170;-44
2022/04/24 02:27:49;;;;;;;3.92;3.53;;;11.80;99.90;;;;;;5092147;28;20184;-44
2022/04/24 02:30:15;;;;;;;4.78;4.28;;;11.60;99.90;;;;;;5092108;28;20521;-45
2022/04/24 02:32:40;;;;;;;4.53;4.13;;;11.50;99.90;;;;;;5091748;28;20189;-45
2022/04/24 02:35:06;;;;;;;4.85;4.03;;;11.50;99.90;;;;;;5092106;28;20169;-45
2022/04/24 02:37:32;;;;;;;5.32;3.38;;;11.50;99.90;;;;;;5091768;28;20615;-45
2022/04/24 02:39:58;;;;;;;4.30;3.72;;;11.40;99.90;;;;;;5091992;28;20174;-45
2022/04/24 02:42:24;;;;;;;4.13;3.72;;;11.30;99.90;;;;;;5091962;28;20165;-44
2022/04/24 02:44:50;;;;;;;4.10;3.70;;;11.30;99.90;;;;;;5091932;28;20174;-45
2022/04/24 02:47:16;;;;;;;4.70;3.75;;;11.20;99.90;;;;;;5091723;28;20165;-45
2022/04/24 02:49:41;;;;;;;5.57;3.78;;;11.30;99.90;;;;;;5091673;28;20165;-45
2022/04/24 02:52:07;;;;;;;4.43;4.03;;;11.20;99.90;;;;;;5094580;28;20283;-45
2022/04/24 02:54:33;;;;;;;4.28;3.88;;;11.20;99.90;;;;;;5095409;28;20179;-44
2022/04/24 02:56:59;;;;;;;6.57;4.30;;;11.20;99.90;;;;;;5095464;28;20250;-44
2022/04/24 02:59:25;;;;;;;4.50;4.10;;;11.10;99.90;;;;;;5095553;28;20215;-45
2022/04/24 03:01:52;;;;;;;4.70;4.20;;;11.10;99.90;;;;;;5095625;28;20343;-44
2022/04/24 03:04:17;;;;;;;5.03;4.53;;;11.00;99.90;;;;;;5095513;28;20252;-44
2022/04/24 03:06:43;;;;;;;5.55;4.05;;;11.00;99.90;;;;;;5095279;28;20596;-44
2022/04/24 03:09:09;;;;;;;8.45;4.05;;;11.00;99.90;;;;;;5095251;28;20183;-44
2022/04/24 03:11:34;;;;;;;4.32;3.92;;;10.90;99.90;;;;;;5095227;28;20192;-45
2022/04/24 03:14:00;;;;;;;5.25;4.13;;;10.80;99.90;;;;;;5095088;28;20244;-50
2022/04/24 03:16:25;;;;;;;5.50;4.75;;;10.80;99.90;;;;;;5095095;28;20172;-46
2022/04/24 03:18:51;;;;;;;5.53;4.75;;;10.80;99.90;;;;;;5095251;28;20252;-44
2022/04/24 03:21:17;;;;;;;5.30;4.50;;;10.80;99.90;;;;;;5094979;28;20202;-45
2022/04/24 03:23:42;;;;;;;4.72;4.22;;;10.70;99.90;;;;;;5095156;28;20221;-46
2022/04/24 03:26:08;;;;;;;5.07;4.53;;;10.70;99.90;;;;;;5094986;28;20161;-48
2022/04/24 03:28:33;;;;;;;7.43;4.80;;;10.70;99.90;;;;;;5095131;28;20492;-50
2022/04/24 03:30:59;;;;;;;6.07;5.03;;;10.60;99.90;;;;;;5095032;28;20180;-46
2022/04/24 03:33:24;;;;;;;6.10;4.97;;;10.60;99.90;;;;;;5095249;28;20208;-44
2022/04/24 03:35:50;;;;;;;5.85;5.25;;;10.60;99.90;;;;;;5095072;28;20600;-48
2022/04/24 03:38:16;;;;;;;6.45;4.85;;;10.60;99.90;;;;;;5094935;28;20169;-45
2022/04/24 03:40:41;;;;;;;5.25;4.75;;;10.60;99.90;;;;;;5094863;28;20161;-47
2022/04/24 03:43:07;;;;;;;5.32;4.82;;;10.50;99.90;;;;;;5094574;28;20177;-48
2022/04/24 03:45:32;;;;;;;8.10;4.65;;;10.60;99.90;;;;;;5094523;28;20166;-45
2022/04/24 03:47:58;;;;;;;5.75;5.15;;;10.60;99.90;;;;;;5094443;28;20174;-44
2022/04/24 03:50:23;;;;;;;5.28;4.78;;;10.50;99.90;;;;;;5094774;28;20165;-47
2022/04/24 03:52:49;;;;;;;6.13;4.80;;;10.50;99.90;;;;;;5093204;28;20228;-50
2022/04/24 03:55:15;;;;;;;5.70;5.20;;;10.40;99.90;;;;;;5094374;28;20168;-46
2022/04/24 03:57:40;;;;;;;5.45;4.93;;;10.30;99.90;;;;;;5094261;28;20165;-44
2022/04/24 04:00:10;;;;;;;6.18;5.07;;;10.20;99.90;;;;;;5092978;28;20170;-49
2022/04/24 04:02:46;;;;;;;6.65;5.47;;;10.20;99.90;;;;;;5093616;28;20209;-50
2022/04/24 04:05:13;;;;;;;5.68;5.07;;;10.30;99.90;;;;;;5094384;28;20171;-46
2022/04/24 04:07:39;;;;;;;6.35;5.20;;;10.20;99.90;;;;;;5094125;28;20245;-45
2022/04/24 04:10:06;;;;;;;6.97;5.75;;;10.30;99.90;;;;;;5094049;28;20657;-48
2022/04/24 04:12:32;;;;;;;6.40;5.75;;;10.20;99.90;;;;;;5093965;28;20201;-46
2022/04/24 04:15:03;;;;;;;5.68;5.15;;;10.30;99.90;;;;;;5094131;28;20241;-46
2022/04/24 04:17:29;;;;;;;8.20;5.45;;;10.20;99.90;;;;;;5093813;28;20222;-47
2022/04/24 04:19:55;;;;;;;6.55;5.05;;;10.20;99.90;;;;;;5094102;28;20244;-44
2022/04/24 04:22:20;;;;;;;6.55;5.95;;;10.20;99.90;;;;;;5094078;28;20169;-49
2022/04/24 04:24:46;;;;;;;6.15;5.18;;;10.30;99.90;;;;;;5093804;28;20169;-46
2022/04/24 04:27:11;;;;;;;5.57;5.07;;;10.30;99.90;;;;;;5093598;28;20634;-44
2022/04/24 04:29:37;;;;;;;6.60;5.80;;;10.30;99.90;;;;;;5093861;28;20177;-46
2022/04/24 04:32:03;;;;;;;6.75;5.57;;;10.30;99.90;;;;;;5093743;28;20622;-45
2022/04/24 04:34:29;;;;;;;6.50;5.72;;;10.30;99.90;;;;;;5093507;28;20174;-44
2022/04/24 04:36:54;;;;;;;6.40;5.70;;;10.40;99.90;;;;;;5093804;28;20177;-46
2022/04/24 04:39:20;;;;;;;6.40;5.80;;;10.40;99.90;;;;;;5094161;28;20195;-44
2022/04/24 04:41:46;;;;;;;6.50;5.85;;;10.40;99.90;;;;;;5093706;28;20165;-44
2022/04/24 04:44:12;;;;;;;7.03;5.70;;;10.30;99.90;;;;;;5093357;28;20197;-44
2022/04/24 04:46:38;;;;;;;6.70;6.03;;;10.40;99.90;;;;;;5093348;28;20172;-44
2022/04/24 04:49:03;;;;;;;6.20;5.60;;;10.40;99.90;;;;;;5093603;28;20182;-44
2022/04/24 04:51:29;;;;;;;8.88;5.65;;;10.50;99.90;;;;;;5093112;28;20186;-44
2022/04/24 04:53:55;;;;;;;7.07;6.25;;;10.50;99.90;;;;;;5093149;28;20645;-44
2022/04/24 04:56:21;;;;;;;6.80;5.70;;;10.60;99.90;;;;;;5093103;28;20172;-45
2022/04/24 04:58:47;;;;;;;5.88;5.32;;;10.60;99.90;;;;;;5093058;28;20179;-44
2022/04/24 05:01:12;;;;;;;7.55;5.82;;;10.60;99.90;;;;;;5093162;28;20165;-44
2022/04/24 05:03:38;;;;;;;8.07;5.72;;;10.60;99.90;;;;;;5093080;28;20184;-44
2022/04/24 05:06:03;;;;;;;7.57;6.15;;;10.70;99.90;;;;;;5093013;28;20161;-44
2022/04/24 05:08:29;;;;;;;7.22;5.60;;;10.70;99.90;;;;;;5093244;28;20169;-44
2022/04/24 05:10:54;;;;;;;9.77;5.80;;;10.70;99.90;;;;;;5093316;28;20529;-44
2022/04/24 05:13:20;;;;;;;6.22;5.60;;;10.80;99.90;;;;;;5092430;28;20277;-44
2022/04/24 05:15:46;;;;;;;6.00;5.20;;;10.90;99.90;;;;;;5093133;28;20165;-45
2022/04/24 05:18:11;;;;;;;8.18;5.72;;;10.90;99.90;;;;;;5093013;28;20579;-44
2022/04/24 05:20:37;;;;;;;6.20;5.35;;;10.90;99.90;;;;;;5092835;28;20207;-44
2022/04/24 05:23:05;;;;;;;7.15;5.50;;;11.00;99.90;;;;;;5092730;28;20166;-45
2022/04/24 05:25:31;;;;;;;5.90;5.32;;;11.00;99.90;;;;;;5092812;28;20162;-47
2022/04/24 05:27:57;;;;;;;6.75;6.00;;;11.00;99.90;;;;;;5092618;28;20176;-44
2022/04/24 05:30:23;;;;;;;7.55;5.70;;;11.00;99.90;;;;;;5092828;28;20203;-45
2022/04/24 05:32:50;;;;;;;5.82;5.22;;;11.00;99.90;;;;;;5092461;28;20216;-45
2022/04/24 05:35:16;;;;;;;8.07;5.65;;;11.00;99.90;;;;;;5092750;28;20173;-44
2022/04/24 05:37:42;;;;;;;5.78;5.22;;;11.10;99.90;;;;;;5091190;28;20176;-44
2022/04/24 05:40:08;;;;;;;5.93;5.32;;;11.10;99.90;;;;;;5092531;28;20548;-45
2022/04/24 05:42:34;;;;;;;5.90;5.25;;;11.20;99.90;;;;;;5092398;28;20577;-45
2022/04/24 05:45:01;;;;;;;6.57;5.40;;;11.20;99.90;;;;;;5092387;28;20208;-45
2022/04/24 05:47:27;;;;;;;7.07;5.53;;;11.10;99.90;;;;;;5092418;28;20157;-44
2022/04/24 05:49:53;;;;;;;7.18;6.07;;;11.20;99.90;;;;;;5092622;28;20173;-44
2022/04/24 05:52:18;;;;;;;6.53;5.78;;;11.20;99.90;;;;;;5092261;28;20258;-44
2022/04/24 05:54:44;;;;;;;5.93;5.32;;;11.30;99.90;;;;;;5092238;28;20173;-44
2022/04/24 05:57:09;;;;;;;7.70;5.97;;;11.30;99.90;;;;;;5092490;28;20161;-44
2022/04/24 05:59:35;;;;;;;7.28;5.80;;;11.50;99.90;;;;;;5091954;28;20771;-44
2022/04/24 06:02:00;;;;;;;6.35;5.47;;;11.50;99.90;;;;;;5090432;28;20205;-45
2022/04/24 06:04:27;;;;;;;9.10;5.97;;;11.50;99.90;;;;;;5091733;28;20614;-44
2022/04/24 06:06:52;;;;;;;9.48;6.03;;;11.60;99.90;;;;;;5092262;28;20196;-44
2022/04/24 06:09:18;;;;;;;7.32;5.35;;;11.80;99.90;;;;;;5091676;28;20623;-48
2022/04/24 06:11:44;;;;;;;8.88;6.18;;;11.80;99.90;;;;;;5091589;28;20652;-49
2022/04/24 06:14:09;;;;;;;7.60;5.60;;;11.90;99.90;;;;;;5091482;28;20221;-48
2022/04/24 06:16:36;;;;;;;7.82;5.95;;;12.10;99.90;;;;;;5091568;28;20243;-51
2022/04/24 06:19:02;;;;;;;6.60;6.00;;;12.10;99.90;;;;;;5091931;28;20622;-48
2022/04/24 06:21:27;;;;;;;7.53;6.22;;;12.30;99.90;;;;;;5091947;28;20203;-46
2022/04/24 06:23:53;;;;;;;7.88;5.82;;;12.30;99.90;;;;;;5092226;28;20165;-48
2022/04/24 06:26:18;;;;;;;7.32;5.93;;;12.40;99.90;;;;;;5095527;28;20661;-49
2022/04/24 06:28:44;;;;;;;8.48;6.53;;;12.40;99.90;;;;;;5095964;28;20221;-48
2022/04/24 06:31:09;;;;;;;6.38;5.78;;;12.50;99.90;;;;;;5096068;28;20259;-50
2022/04/24 06:33:35;;;;;;;6.78;6.18;;;12.40;99.90;;;;;;5095956;28;20204;-44
2022/04/24 06:36:02;;;;;;;7.00;6.10;;;12.50;99.90;;;;;;5095918;28;20166;-44
2022/04/24 06:38:28;;;;;;;9.30;6.28;;;12.50;99.90;;;;;;5096034;28;20257;-44
2022/04/24 06:40:53;;;;;;;7.82;6.45;;;12.60;99.90;;;;;;5095940;28;20204;-44
2022/04/24 06:43:19;;;;;;;7.05;6.35;;;12.80;99.90;;;;;;5095787;28;20169;-44
2022/04/24 06:45:45;;;;;;;7.68;6.63;;;12.80;99.90;;;;;;5095712;28;20680;-44
2022/04/24 06:48:15;;;;;;;6.35;5.75;;;12.80;99.90;;;;;;5095913;28;20181;-44
2022/04/24 06:50:43;;;;;;;8.80;6.50;;;12.80;99.90;;;;;;5095522;28;20166;-44
2022/04/24 06:53:11;;;;;;;6.85;6.15;;;12.80;99.90;;;;;;5094209;28;20223;-44
2022/04/24 06:55:39;;;;;;;7.07;6.38;;;12.70;99.90;;;;;;5095620;28;20174;-44
2022/04/24 06:58:06;;;;;;;7.40;6.70;;;12.70;99.90;;;;;;5095444;28;20531;-46
2022/04/24 07:00:36;;;;;;;6.72;6.10;;;12.80;99.90;;;;;;5095373;28;20169;-46
2022/04/24 07:03:12;;;;;;;7.40;6.70;;;12.80;99.90;;;;;;5095266;28;20278;-45
2022/04/24 07:05:37;;;;;;;8.13;6.18;;;12.90;99.90;;;;;;5095312;28;20172;-45
2022/04/24 07:08:03;;;;;;;6.50;5.97;;;13.20;99.90;;;;;;5095328;28;20165;-46
2022/04/24 07:10:29;;;;;;;6.85;6.18;;;13.20;99.90;;;;;;5095493;28;20169;-48
2022/04/24 07:12:54;;;;;;;7.32;6.50;;;13.40;99.90;;;;;;5094207;28;20209;-46
2022/04/24 07:15:21;;;;;;;7.15;6.45;;;13.50;99.90;;;;;;5095409;28;20518;-46
2022/04/24 07:17:48;;;;;;;6.90;6.30;;;13.70;99.90;;;;;;5095056;28;20575;-45
2022/04/24 07:20:16;;;;;;;7.88;6.35;;;13.90;99.90;;;;;;5095018;28;20571;-47
2022/04/24 07:22:53;;;;;;;9.02;6.78;;;13.90;99.90;;;;;;5094540;28;20705;-48
2022/04/24 07:25:21;;;;;;;7.63;6.75;;;14.00;99.90;;;;;;5094745;28;20553;-47
2022/04/24 07:27:47;;;;;;;7.78;6.72;;;14.10;99.90;;;;;;5094893;28;20568;-46
2022/04/24 07:30:14;;;;;;;7.72;6.93;;;14.20;99.90;;;;;;5093462;28;20233;-48
2022/04/24 07:32:47;;;;;;;9.25;6.20;;;14.10;99.90;;;;;;5093744;28;20238;-47
2022/04/24 07:35:17;;;;;;;8.25;7.20;;;14.10;99.90;;;;;;5094737;28;20169;-48
2022/04/24 07:37:43;;;;;;;7.10;6.10;;;14.00;99.90;;;;;;5092136;28;20161;-50
2022/04/24 07:40:12;;;;;;;7.40;6.70;;;13.90;99.90;;;;;;5093101;28;20172;-44
2022/04/24 07:42:47;;;;;;;6.88;6.28;;;14.30;99.90;;;;;;5093535;28;20637;-45
2022/04/24 07:45:24;;;;;;;8.38;6.22;;;14.60;99.90;;;;;;5094348;28;20661;-47
2022/04/24 07:47:50;;;;;;;7.30;6.28;;;14.70;99.90;;;;;;5094586;28;20161;-44
2022/04/24 07:50:18;;;;;;;6.68;5.85;;;15.20;99.90;;;;;;5094245;28;20169;-47
2022/04/24 07:52:44;;;;;;;6.50;5.90;;;15.50;99.90;;;;;;5094305;28;20201;-44
2022/04/24 07:55:11;;;;;;;6.18;5.57;;;15.50;99.90;;;;;;5094338;28;20569;-45
2022/04/24 07:57:40;;;;;;;7.38;6.25;;;15.50;99.90;;;;;;5094398;28;20180;-47
2022/04/24 08:00:07;;;;;;;7.18;6.47;;;15.30;99.90;;;;;;5094251;28;20165;-49
2022/04/24 08:02:32;;;;;;;10.65;6.75;;;15.40;99.90;;;;;;5093391;28;20666;-51
2022/04/24 08:04:58;;;;;;;9.48;6.75;;;15.30;99.90;;;;;;5093776;28;20248;-46
2022/04/24 08:07:23;;;;;;;7.65;6.78;;;15.20;99.90;;;;;;5093139;28;20553;-46
2022/04/24 08:09:49;;;;;;;8.15;6.45;;;15.50;99.90;;;;;;5092688;28;20174;-46
2022/04/24 08:12:16;;;;;;;7.30;6.53;;;15.40;99.90;;;;;;5094051;28;20201;-45
2022/04/24 08:14:42;;;;;;;6.95;6.32;;;15.70;99.90;;;;;;5093905;28;20173;-45
2022/04/24 08:17:07;;;;;;;6.78;6.05;;;15.60;99.90;;;;;;5093846;28;20176;-49
2022/04/24 08:19:33;;;;;;;8.85;6.40;;;15.50;99.90;;;;;;5093871;28;20165;-44
2022/04/24 08:21:58;;;;;;;6.88;6.18;;;15.50;99.90;;;;;;5094046;28;20173;-46
2022/04/24 08:24:24;;;;;;;9.73;6.30;;;15.70;99.90;;;;;;5094036;28;20166;-46
2022/04/24 08:26:49;;;;;;;7.75;6.00;;;15.40;99.90;;;;;;5093612;28;20177;-43
2022/04/24 08:29:15;;;;;;;6.53;5.75;;;15.50;99.90;;;;;;5093594;28;20244;-43
2022/04/24 08:31:40;;;;;;;6.97;6.30;;;15.40;99.90;;;;;;5093640;28;20170;-43
2022/04/24 08:34:06;;;;;;;7.05;6.35;;;15.50;99.90;;;;;;5093534;28;20288;-44
2022/04/24 08:36:31;;;;;;;8.27;6.40;;;15.70;99.90;;;;;;5093610;28;20626;-44
2022/04/24 08:38:57;;;;;;;8.80;6.60;;;15.90;99.90;;;;;;5093562;28;20173;-43
2022/04/24 08:41:25;;;;;;;6.47;5.88;;;15.90;99.90;;;;;;5093840;28;20169;-44
2022/04/24 08:43:52;;;;;;;7.45;6.20;;;16.00;99.90;;;;;;5093802;28;20524;-43
2022/04/24 08:46:18;;;;;;;7.57;6.30;;;15.70;99.90;;;;;;5093421;28;20169;-43
2022/04/24 08:48:45;;;;;;;8.35;6.38;;;16.00;99.90;;;;;;5093323;28;20614;-43
2022/04/24 08:51:11;;;;;;;8.07;6.47;;;15.80;99.90;;;;;;5091959;28;20170;-45
2022/04/24 08:53:38;;;;;;;6.65;5.93;;;15.70;99.90;;;;;;5093483;28;20615;-44
2022/04/24 08:56:04;;;;;;;7.57;6.35;;;16.10;99.90;;;;;;5093223;28;20169;-44
2022/04/24 08:58:31;;;;;;;6.78;6.10;;;15.80;99.90;;;;;;5093398;28;20189;-44
2022/04/24 09:00:56;;;;;;;10.80;6.45;;;15.80;99.90;;;;;;5093505;28;20177;-43
2022/04/24 09:03:22;;;;;;;7.13;5.95;;;16.00;99.90;;;;;;5093188;28;20235;-46
2022/04/24 09:05:47;;;;;;;8.18;6.53;;;16.00;99.90;;;;;;5093067;28;20192;-43
2022/04/24 09:08:14;;;;;;;7.65;6.43;;;15.90;99.90;;;;;;5093349;28;20218;-43
2022/04/24 09:10:49;;;;;;;6.05;5.43;;;16.30;99.90;;;;;;5093161;28;20162;-43
2022/04/24 09:13:29;;;;;;;7.32;6.63;;;16.30;99.90;;;;;;5092618;28;20750;-43
2022/04/24 09:16:00;;;;;;;6.53;5.85;;;16.80;99.90;;;;;;5093110;28;20170;-43
2022/04/24 09:18:39;;;;;;;6.03;5.43;;;17.00;99.90;;;;;;5092858;28;20656;-49
2022/04/24 09:21:04;;;;;;;7.90;7.10;;;16.70;99.90;;;;;;5092815;28;20614;-48
2022/04/24 09:23:37;;;;;;;8.38;6.75;;;16.70;99.90;;;;;;5093042;28;20177;-44
2022/04/24 09:26:03;;;;;;;7.63;6.82;;;16.80;99.90;;;;;;5092580;28;20167;-48
2022/04/24 09:28:41;;;;;;;6.57;5.03;;;16.80;99.90;;;;;;5092923;28;20514;-46
2022/04/24 09:31:07;;;;;;;8.48;6.32;;;16.60;99.90;;;;;;5092976;28;20165;-44
2022/04/24 09:33:38;;;;;;;9.10;6.10;;;16.70;99.90;;;;;;5092482;28;20760;-43
2022/04/24 09:36:03;;;;;;;8.95;7.05;;;16.60;99.90;;;;;;5092763;28;20173;-43
2022/04/24 09:38:29;;;;;;;10.45;7.20;;;16.50;99.90;;;;;;5092550;28;20509;-43
2022/04/24 09:40:54;;;;;;;9.38;6.63;;;16.60;99.90;;;;;;5092772;28;20183;-43
2022/04/24 09:43:20;;;;;;;9.27;6.43;;;16.80;99.90;;;;;;5092662;28;20222;-43
2022/04/24 09:45:53;;;;;;;10.15;6.70;;;16.80;99.90;;;;;;5092703;28;20694;-43
2022/04/24 09:48:20;;;;;;;8.40;5.95;;;16.70;99.90;;;;;;5092564;28;20177;-43
2022/04/24 09:50:49;;;;;;;9.27;6.57;;;16.70;99.90;;;;;;5092290;28;20626;-43
2022/04/24 09:53:18;;;;;;;8.98;6.70;;;17.00;99.90;;;;;;5092142;28;20682;-43
2022/04/24 09:55:44;;;;;;;7.78;6.45;;;17.30;99.90;;;;;;5092177;28;20634;-43
2022/04/24 09:58:11;;;;;;;7.35;6.65;;;17.40;99.90;;;;;;5092158;28;20214;-43
2022/04/24 10:00:37;;;;;;;7.90;6.95;;;17.40;99.90;;;;;;5091723;28;20158;-43
2022/04/24 10:03:03;;;;;;;6.45;5.70;;;17.80;99.90;;;;;;5092050;28;20235;-44
2022/04/24 10:05:30;;;;;;;7.10;6.18;;;17.20;99.90;;;;;;5092109;28;20165;-43
2022/04/24 10:07:57;;;;;;;9.68;6.70;;;17.50;99.90;;;;;;5091970;28;20200;-43
2022/04/24 10:10:22;;;;;;;11.82;6.93;;;17.70;99.90;;;;;;5092631;28;20165;-43
2022/04/24 10:12:50;;;;;;;12.60;6.97;;;17.80;99.90;;;;;;5091975;28;20680;-43
2022/04/24 10:15:18;;;;;;;7.90;6.00;;;17.90;99.90;;;;;;5092227;28;20572;-43
2022/04/24 10:17:55;;;;;;;5.65;5.05;;;17.90;99.90;;;;;;5092115;28;20172;-43
2022/04/24 10:20:33;;;;;;;7.35;6.15;;;17.70;99.80;;;;;;5092292;28;20209;-43
2022/04/24 10:22:59;;;;;;;8.43;7.10;;;18.00;99.90;;;;;;5091799;28;20169;-44
2022/04/24 10:25:39;;;;;;;7.65;6.60;;;18.30;99.90;;;;;;5092193;28;20196;-44
2022/04/24 10:28:11;;;;;;;7.22;6.50;;;18.40;99.90;;;;;;5091589;28;20192;-43
2022/04/24 10:30:37;;;;;;;6.70;6.00;;;18.30;99.90;;;;;;5092092;28;20229;-43
2022/04/24 10:33:22;;;;;;;9.05;6.63;;;18.50;99.90;;;;;;5091879;28;20292;-45
2022/04/24 10:35:52;;;;;;;6.53;5.80;;;18.40;99.90;;;;;;5091746;28;20204;-43
2022/04/24 10:38:20;;;;;;;8.95;6.15;;;18.40;99.90;;;;;;5090552;28;20249;-44
2022/04/24 10:41:06;;;;;;;7.20;6.50;;;18.30;99.60;;;;;;5091673;28;20694;-45
2022/04/24 10:43:41;;;;;;;9.20;6.13;;;18.40;98.20;;;;;;5091871;28;20582;-43
2022/04/24 10:46:20;;;;;;;7.75;6.95;;;18.70;99.00;;;;;;5091902;28;20173;-43
2022/04/24 10:48:47;;;;;;;7.45;6.75;;;18.50;98.70;;;;;;5092059;28;20165;-43
2022/04/24 10:51:14;;;;;;;7.65;6.95;;;18.40;98.40;;;;;;5091980;28;20591;-43
2022/04/24 10:53:56;;;;;;;6.55;5.90;;;18.30;98.10;;;;;;5091848;28;20292;-44
2022/04/24 10:56:22;;;;;;;10.80;7.40;;;18.50;98.90;;;;;;5091903;28;20197;-45
2022/04/24 10:58:50;;;;;;;10.07;7.03;;;18.50;98.70;;;;;;5091487;28;20193;-43
2022/04/24 11:01:16;;;;;;;9.05;7.47;;;18.40;98.10;;;;;;5091661;28;20542;-43
2022/04/24 11:03:47;;;;;;;8.95;7.00;;;18.60;97.30;;;;;;5091846;28;20176;-43
2022/04/24 11:06:20;;;;;;;7.72;7.03;;;18.70;97.70;;;;;;5091531;28;20567;-43
2022/04/24 11:08:46;;;;;;;8.23;6.35;;;18.80;97.00;;;;;;5091457;28;20169;-44
2022/04/24 11:11:13;;;;;;;8.52;6.95;;;18.70;97.20;;;;;;5091514;28;20206;-43
2022/04/24 11:13:39;;;;;;;8.27;7.40;;;18.80;96.60;;;;;;5095144;28;20221;-43
2022/04/24 11:16:06;;;;;;;7.25;6.55;;;18.80;97.10;;;;;;5095184;28;20180;-43
2022/04/24 11:18:33;;;;;;;7.75;6.97;;;18.90;96.80;;;;;;5095297;28;20177;-43
2022/04/24 11:21:04;;;;;;;7.70;6.82;;;19.00;96.60;;;;;;5095227;28;20240;-42
2022/04/24 11:23:35;;;;;;;8.23;6.97;;;19.10;95.70;;;;;;5095225;28;20169;-43
2022/04/24 11:26:02;;;;;;;9.30;7.28;;;19.40;96.10;;;;;;5095249;28;20244;-44
2022/04/24 11:28:39;;;;;;;7.97;7.18;;;19.00;95.30;;;;;;5094878;28;20161;-43
2022/04/24 11:31:18;;;;;;;7.10;5.88;;;19.30;95.70;;;;;;5094900;28;20617;-43
2022/04/24 11:33:53;;;;;;;9.07;6.57;;;19.20;95.20;;;;;;5094664;28;20199;-46
2022/04/24 11:36:19;;;;;;;7.70;5.28;;;19.20;96.10;;;;;;5094781;28;20169;-46
2022/04/24 11:38:47;;;;;;;7.80;6.78;;;19.10;94.30;;;;;;5094711;28;20177;-44
2022/04/24 11:41:14;;;;;;;10.63;8.00;;;19.20;94.30;;;;;;5094704;28;20164;-44
2022/04/24 11:43:41;;;;;;;9.23;6.20;;;19.40;94.10;;;;;;5094926;28;20354;-44
2022/04/24 11:51:34;;;;;;;7.43;6.30;;;19.20;93.80;;;;;;5094457;28;20173;-44
2022/04/24 11:54:00;;;;;;;8.70;7.88;;;19.30;93.50;;;;;;5094310;28;20204;-46
2022/04/24 11:56:26;;;;;;;8.40;7.10;;;19.60;93.70;;;;;;5094407;28;20618;-44
2022/04/24 11:58:52;;;;;;;7.90;6.07;;;19.80;92.60;;;;;;5094839;28;20184;-47
2022/04/24 12:01:19;;;;;;;8.65;6.53;;;19.70;92.10;;;;;;5094405;28;20162;-44
2022/04/24 12:03:46;;;;;;;10.48;6.28;;;19.60;92.40;;;;;;5094531;28;20201;-46
2022/04/24 12:06:13;;;;;;;7.07;6.00;;;19.80;92.50;;;;;;5094396;28;20173;-44
2022/04/24 12:08:48;;;;;;;7.03;6.32;;;19.70;91.80;;;;;;5094464;28;20252;-48
2022/04/24 12:11:23;;;;;;;6.75;6.00;;;19.90;91.40;;;;;;5094331;28;20531;-45
2022/04/24 12:14:11;;;;;;;8.30;5.97;;;19.90;91.60;;;;;;5093026;28;20209;-44
2022/04/24 12:16:39;;;;;;;6.00;5.40;;;20.00;91.10;;;;;;5094268;28;20566;-45
2022/04/24 12:19:05;;;;;;;11.07;5.78;;;19.70;89.90;;;;;;5094237;28;20169;-47
2022/04/24 12:21:32;;;;;;;6.65;5.40;;;19.50;91.40;;;;;;5093963;28;20169;-48
2022/04/24 12:23:59;;;;;;;6.38;5.78;;;19.60;90.40;;;;;;5093705;28;20197;-49
2022/04/24 12:26:25;;;;;;;7.80;5.85;;;19.40;90.90;;;;;;5094080;28;20257;-49
2022/04/24 12:28:51;;;;;;;7.47;5.43;;;19.20;90.90;;;;;;5094165;28;20256;-47
2022/04/24 12:31:21;;;;;;;7.95;6.55;;;19.30;90.70;;;;;;5094013;28;20512;-50
2022/04/24 12:33:52;;;;;;;7.32;5.85;;;19.40;90.30;;;;;;5093859;28;20212;-45
2022/04/24 12:36:18;;;;;;;5.60;5.10;;;19.40;89.40;;;;;;5093543;28;20649;-48
2022/04/24 12:39:03;;;;;;;5.97;5.47;;;19.90;90.80;;;;;;5093827;28;20175;-44
2022/04/24 12:41:29;;;;;;;6.13;5.53;;;20.20;88.00;;;;;;5093729;28;20173;-44
2022/04/24 12:43:58;;;;;;;5.93;5.28;;;20.40;88.60;;;;;;5093950;28;20167;-50
2022/04/24 12:46:24;;;;;;;6.97;5.53;;;20.90;89.20;;;;;;5093764;28;20177;-48
2022/04/24 12:48:52;;;;;;;6.30;5.15;;;21.10;87.20;;;;;;5093734;28;20166;-50
2022/04/24 12:51:23;;;;;;;5.70;5.15;;;20.90;87.00;;;;;;5093606;28;20233;-46